sensor_id;sensor_type;location;lat;lon;timestamp;pressure;altitude;pressure_sealevel;temperature;humidity
31088;BME280;17745;55.914;37.554;2023-02-18T00:01:37;99155.28;;;-4.27;52.52
31088;BME280;17745;55.914;37.554;2023-02-18T00:04:06;99152.03;;;-4.29;52.46
31088;BME280;17745;55.914;37.554;2023-02-18T00:06:35;99143.62;;;-4.32;52.46
31088;BME280;17745;55.914;37.554;2023-02-18T00:09:04;99145.72;;;-4.35;52.46
31088;BME280;17745;55.914;37.554;2023-02-18T00:11:34;99145.56;;;-4.34;52.52
31088;BME280;17745;55.914;37.554;2023-02-18T00:14:06;99144.59;;;-4.33;52.53
31088;BME280;17745;55.914;37.554;2023-02-18T00:16:33;99147.00;;;-4.31;52.46
31088;BME280;17745;55.914;37.554;2023-02-18T00:19:03;99137.94;;;-4.43;52.67
31088;BME280;17745;55.914;37.554;2023-02-18T00:21:34;99128.53;;;-4.53;52.85
31088;BME280;17745;55.914;37.554;2023-02-18T00:24:02;99129.63;;;-4.64;53.05
31088;BME280;17745;55.914;37.554;2023-02-18T00:26:33;99129.59;;;-4.72;53.19
31088;BME280;17745;55.914;37.554;2023-02-18T00:29:02;99120.69;;;-4.78;53.30
31088;BME280;17745;55.914;37.554;2023-02-18T00:31:32;99114.22;;;-4.82;53.29
31088;BME280;17745;55.914;37.554;2023-02-18T00:34:01;99118.88;;;-4.85;53.30
31088;BME280;17745;55.914;37.554;2023-02-18T00:36:29;99112.41;;;-4.90;53.31
31088;BME280;17745;55.914;37.554;2023-02-18T00:39:01;99108.50;;;-4.94;53.35
31088;BME280;17745;55.914;37.554;2023-02-18T00:41:30;99112.19;;;-4.96;53.39
31088;BME280;17745;55.914;37.554;2023-02-18T00:43:59;99110.75;;;-4.99;53.43
31088;BME280;17745;55.914;37.554;2023-02-18T00:46:28;99104.91;;;-5.01;53.44
31088;BME280;17745;55.914;37.554;2023-02-18T00:49:00;99105.88;;;-5.02;53.40
31088;BME280;17745;55.914;37.554;2023-02-18T00:51:28;99093.91;;;-5.03;53.41
31088;BME280;17745;55.914;37.554;2023-02-18T00:53:57;99100.88;;;-5.04;53.41
31088;BME280;17745;55.914;37.554;2023-02-18T00:56:26;99101.00;;;-5.05;53.38
31088;BME280;17745;55.914;37.554;2023-02-18T00:58:53;99094.22;;;-5.06;53.36
31088;BME280;17745;55.914;37.554;2023-02-18T01:01:21;99085.84;;;-5.08;53.41
31088;BME280;17745;55.914;37.554;2023-02-18T01:03:49;99079.06;;;-5.09;53.42
31088;BME280;17745;55.914;37.554;2023-02-18T01:06:19;99081.50;;;-5.08;53.42
31088;BME280;17745;55.914;37.554;2023-02-18T01:08:47;99072.28;;;-5.10;53.40
31088;BME280;17745;55.914;37.554;2023-02-18T01:11:15;99061.28;;;-5.12;53.38
31088;BME280;17745;55.914;37.554;2023-02-18T01:13:47;99055.78;;;-5.18;53.49
31088;BME280;17745;55.914;37.554;2023-02-18T01:16:16;99048.84;;;-5.17;53.55
31088;BME280;17745;55.914;37.554;2023-02-18T01:18:45;99049.50;;;-5.15;53.53
31088;BME280;17745;55.914;37.554;2023-02-18T01:21:14;99044.50;;;-5.17;53.52
31088;BME280;17745;55.914;37.554;2023-02-18T01:23:42;99042.06;;;-5.18;53.54
31088;BME280;17745;55.914;37.554;2023-02-18T01:26:10;99033.53;;;-5.19;53.51
31088;BME280;17745;55.914;37.554;2023-02-18T01:28:41;99026.56;;;-5.18;53.50
31088;BME280;17745;55.914;37.554;2023-02-18T01:31:11;99025.78;;;-5.19;53.56
31088;BME280;17745;55.914;37.554;2023-02-18T01:33:39;99017.53;;;-5.22;53.60
31088;BME280;17745;55.914;37.554;2023-02-18T01:36:11;99023.47;;;-5.22;53.60
31088;BME280;17745;55.914;37.554;2023-02-18T01:38:46;99012.50;;;-5.24;53.59
31088;BME280;17745;55.914;37.554;2023-02-18T01:41:20;99004.13;;;-5.26;53.62
31088;BME280;17745;55.914;37.554;2023-02-18T01:44:16;98995.56;;;-5.26;53.66
31088;BME280;17745;55.914;37.554;2023-02-18T01:46:52;98994.63;;;-5.25;53.63
31088;BME280;17745;55.914;37.554;2023-02-18T01:49:41;98995.56;;;-5.26;53.59
31088;BME280;17745;55.914;37.554;2023-02-18T01:52:41;98987.66;;;-5.25;53.55
31088;BME280;17745;55.914;37.554;2023-02-18T01:55:09;98986.22;;;-5.27;53.54
31088;BME280;17745;55.914;37.554;2023-02-18T01:57:37;98975.38;;;-5.31;53.52
31088;BME280;17745;55.914;37.554;2023-02-18T02:00:10;98974.88;;;-5.35;53.65
31088;BME280;17745;55.914;37.554;2023-02-18T02:02:44;98963.25;;;-5.39;53.77
31088;BME280;17745;55.914;37.554;2023-02-18T02:05:17;98964.22;;;-5.40;53.85
31088;BME280;17745;55.914;37.554;2023-02-18T02:07:46;98969.38;;;-5.40;53.83
31088;BME280;17745;55.914;37.554;2023-02-18T02:10:16;98963.44;;;-5.40;53.83
31088;BME280;17745;55.914;37.554;2023-02-18T02:12:52;98965.31;;;-5.42;53.88
31088;BME280;17745;55.914;37.554;2023-02-18T02:15:33;98961.94;;;-5.43;53.91
31088;BME280;17745;55.914;37.554;2023-02-18T02:18:16;98965.50;;;-5.44;53.92
31088;BME280;17745;55.914;37.554;2023-02-18T02:21:22;98945.81;;;-5.45;54.02
31088;BME280;17745;55.914;37.554;2023-02-18T02:30:41;98940.28;;;-5.15;53.85
31088;BME280;17745;55.914;37.554;2023-02-18T02:33:29;98933.53;;;-5.00;53.82
31088;BME280;17745;55.914;37.554;2023-02-18T02:36:10;98940.19;;;-4.89;53.67
31088;BME280;17745;55.914;37.554;2023-02-18T02:38:46;98929.06;;;-4.81;53.72
31088;BME280;17745;55.914;37.554;2023-02-18T02:41:27;98922.28;;;-4.74;53.67
31088;BME280;17745;55.914;37.554;2023-02-18T02:44:10;98925.69;;;-4.65;53.66
31088;BME280;17745;55.914;37.554;2023-02-18T02:46:42;98930.53;;;-4.54;53.50
31088;BME280;17745;55.914;37.554;2023-02-18T02:49:18;98917.63;;;-4.46;53.32
31088;BME280;17745;55.914;37.554;2023-02-18T02:51:58;98917.44;;;-4.44;53.25
31088;BME280;17745;55.914;37.554;2023-02-18T02:54:28;98927.16;;;-4.38;53.35
31088;BME280;17745;55.914;37.554;2023-02-18T02:59:57;98910.34;;;-4.50;53.51
31088;BME280;17745;55.914;37.554;2023-02-18T03:02:47;98901.31;;;-4.54;53.69
31088;BME280;17745;55.914;37.554;2023-02-18T03:05:24;98906.50;;;-4.54;53.71
31088;BME280;17745;55.914;37.554;2023-02-18T03:08:06;98908.72;;;-4.60;53.73
31088;BME280;17745;55.914;37.554;2023-02-18T03:10:44;98899.34;;;-4.61;53.67
31088;BME280;17745;55.914;37.554;2023-02-18T03:13:25;98898.72;;;-4.63;53.74
31088;BME280;17745;55.914;37.554;2023-02-18T03:15:56;98892.25;;;-4.67;53.87
31088;BME280;17745;55.914;37.554;2023-02-18T03:18:34;98891.94;;;-4.72;53.92
31088;BME280;17745;55.914;37.554;2023-02-18T03:21:06;98882.59;;;-4.73;53.99
31088;BME280;17745;55.914;37.554;2023-02-18T03:23:42;98874.50;;;-4.70;53.92
31088;BME280;17745;55.914;37.554;2023-02-18T03:26:16;98875.16;;;-4.68;53.92
31088;BME280;17745;55.914;37.554;2023-02-18T03:28:48;98874.66;;;-4.71;53.86
31088;BME280;17745;55.914;37.554;2023-02-18T03:31:20;98864.16;;;-4.70;53.86
31088;BME280;17745;55.914;37.554;2023-02-18T03:33:56;98873.69;;;-4.70;53.97
31088;BME280;17745;55.914;37.554;2023-02-18T03:36:27;98859.00;;;-4.70;53.97
31088;BME280;17745;55.914;37.554;2023-02-18T03:39:25;98856.91;;;-4.66;54.01
31088;BME280;17745;55.914;37.554;2023-02-18T03:41:53;98857.87;;;-4.59;53.84
31088;BME280;17745;55.914;37.554;2023-02-18T03:44:24;98843.66;;;-4.63;53.88
31088;BME280;17745;55.914;37.554;2023-02-18T03:46:52;98844.66;;;-4.64;53.87
31088;BME280;17745;55.914;37.554;2023-02-18T03:49:20;98832.06;;;-4.67;53.87
31088;BME280;17745;55.914;37.554;2023-02-18T03:51:48;98824.47;;;-4.77;53.98
31088;BME280;17745;55.914;37.554;2023-02-18T03:54:23;98823.50;;;-4.76;54.02
31088;BME280;17745;55.914;37.554;2023-02-18T03:56:51;98824.16;;;-4.74;53.95
31088;BME280;17745;55.914;37.554;2023-02-18T03:59:19;98820.25;;;-4.70;54.04
31088;BME280;17745;55.914;37.554;2023-02-18T04:01:47;98818.81;;;-4.64;53.87
31088;BME280;17745;55.914;37.554;2023-02-18T04:04:17;98813.13;;;-4.60;53.78
31088;BME280;17745;55.914;37.554;2023-02-18T04:06:46;98804.75;;;-4.53;53.62
31088;BME280;17745;55.914;37.554;2023-02-18T04:09:14;98803.94;;;-4.54;53.67
31088;BME280;17745;55.914;37.554;2023-02-18T04:11:43;98811.03;;;-4.56;53.62
31088;BME280;17745;55.914;37.554;2023-02-18T04:14:12;98812.00;;;-4.57;53.63
31088;BME280;17745;55.914;37.554;2023-02-18T04:16:40;98808.62;;;-4.57;53.64
31088;BME280;17745;55.914;37.554;2023-02-18T04:19:09;98806.69;;;-4.55;53.62
31088;BME280;17745;55.914;37.554;2023-02-18T04:21:36;98789.06;;;-4.52;53.66
31088;BME280;17745;55.914;37.554;2023-02-18T04:24:04;98790.38;;;-4.56;53.59
31088;BME280;17745;55.914;37.554;2023-02-18T04:26:32;98792.16;;;-4.65;53.68
31088;BME280;17745;55.914;37.554;2023-02-18T04:29:03;98786.38;;;-4.75;53.76
31088;BME280;17745;55.914;37.554;2023-02-18T04:31:30;98782.16;;;-4.84;53.83
31088;BME280;17745;55.914;37.554;2023-02-18T04:34:01;98778.31;;;-4.89;53.85
31088;BME280;17745;55.914;37.554;2023-02-18T04:36:29;98776.38;;;-4.95;53.84
31088;BME280;17745;55.914;37.554;2023-02-18T04:39:02;98775.88;;;-4.98;53.90
31088;BME280;17745;55.914;37.554;2023-02-18T04:41:32;98765.72;;;-5.00;53.88
31088;BME280;17745;55.914;37.554;2023-02-18T04:44:06;98771.53;;;-4.98;53.90
31088;BME280;17745;55.914;37.554;2023-02-18T04:46:33;98767.81;;;-5.04;53.91
31088;BME280;17745;55.914;37.554;2023-02-18T04:49:01;98772.81;;;-5.02;53.86
31088;BME280;17745;55.914;37.554;2023-02-18T04:51:29;98757.31;;;-5.02;53.93
31088;BME280;17745;55.914;37.554;2023-02-18T04:53:57;98763.78;;;-5.06;54.08
31088;BME280;17745;55.914;37.554;2023-02-18T04:56:24;98752.81;;;-5.08;53.97
31088;BME280;17745;55.914;37.554;2023-02-18T04:58:52;98745.72;;;-5.14;54.12
31088;BME280;17745;55.914;37.554;2023-02-18T05:01:21;98749.75;;;-5.12;54.07
31088;BME280;17745;55.914;37.554;2023-02-18T05:03:48;98756.06;;;-5.14;54.12
31088;BME280;17745;55.914;37.554;2023-02-18T05:06:16;98754.12;;;-5.12;54.33
31088;BME280;17745;55.914;37.554;2023-02-18T05:08:44;98753.63;;;-5.08;54.30
31088;BME280;17745;55.914;37.554;2023-02-18T05:11:11;98745.06;;;-5.08;54.21
31088;BME280;17745;55.914;37.554;2023-02-18T05:13:39;98748.59;;;-5.01;54.21
31088;BME280;17745;55.914;37.554;2023-02-18T05:16:07;98747.97;;;-4.95;54.24
31088;BME280;17745;55.914;37.554;2023-02-18T05:18:36;98737.81;;;-4.88;54.19
31088;BME280;17745;55.914;37.554;2023-02-18T05:21:04;98735.34;;;-4.81;54.14
31088;BME280;17745;55.914;37.554;2023-02-18T05:23:32;98731.34;;;-4.84;54.08
31088;BME280;17745;55.914;37.554;2023-02-18T05:26:00;98720.69;;;-4.81;54.02
31088;BME280;17745;55.914;37.554;2023-02-18T05:28:28;98718.09;;;-4.81;54.04
31088;BME280;17745;55.914;37.554;2023-02-18T05:30:56;98715.03;;;-4.76;53.95
31088;BME280;17745;55.914;37.554;2023-02-18T05:33:26;98720.19;;;-4.76;54.01
31088;BME280;17745;55.914;37.554;2023-02-18T05:35:55;98707.72;;;-4.72;54.05
31088;BME280;17745;55.914;37.554;2023-02-18T05:38:25;98703.19;;;-4.70;53.92
31088;BME280;17745;55.914;37.554;2023-02-18T05:40:53;98703.88;;;-4.68;53.93
31088;BME280;17745;55.914;37.554;2023-02-18T05:43:27;98695.59;;;-4.64;53.82
31088;BME280;17745;55.914;37.554;2023-02-18T05:46:00;98693.03;;;-4.64;53.82
31088;BME280;17745;55.914;37.554;2023-02-18T05:48:39;98689.59;;;-4.56;53.83
31088;BME280;17745;55.914;37.554;2023-02-18T05:51:15;98688.63;;;-4.47;53.93
31088;BME280;17745;55.914;37.554;2023-02-18T05:53:44;98682.00;;;-4.49;53.80
31088;BME280;17745;55.914;37.554;2023-02-18T05:56:18;98680.88;;;-4.47;53.82
31088;BME280;17745;55.914;37.554;2023-02-18T05:59:06;98663.06;;;-4.41;53.87
31088;BME280;17745;55.914;37.554;2023-02-18T06:01:38;98666.13;;;-4.38;53.71
31088;BME280;17745;55.914;37.554;2023-02-18T06:04:21;98655.97;;;-4.39;53.87
31088;BME280;17745;55.914;37.554;2023-02-18T06:06:56;98653.84;;;-4.36;53.66
31088;BME280;17745;55.914;37.554;2023-02-18T06:09:33;98655.47;;;-4.35;53.59
31088;BME280;17745;55.914;37.554;2023-02-18T06:12:04;98643.97;;;-4.32;53.37
31088;BME280;17745;55.914;37.554;2023-02-18T06:14:37;98653.00;;;-4.28;53.36
31088;BME280;17745;55.914;37.554;2023-02-18T06:17:30;98645.06;;;-4.26;53.28
31088;BME280;17745;55.914;37.554;2023-02-18T06:20:46;98647.62;;;-4.18;53.29
31088;BME280;17745;55.914;37.554;2023-02-18T06:23:21;98642.03;;;-4.07;53.13
31088;BME280;17745;55.914;37.554;2023-02-18T06:25:49;98639.38;;;-3.90;53.05
31088;BME280;17745;55.914;37.554;2023-02-18T06:28:17;98626.19;;;-3.80;52.92
31088;BME280;17745;55.914;37.554;2023-02-18T06:30:46;98628.44;;;-3.77;52.94
31088;BME280;17745;55.914;37.554;2023-02-18T06:33:14;98624.97;;;-3.69;52.97
31088;BME280;17745;55.914;37.554;2023-02-18T06:35:52;98626.50;;;-3.60;52.90
31088;BME280;17745;55.914;37.554;2023-02-18T06:38:26;98621.19;;;-3.59;52.78
31088;BME280;17745;55.914;37.554;2023-02-18T06:40:55;98614.19;;;-3.58;52.70
31088;BME280;17745;55.914;37.554;2023-02-18T06:43:25;98608.97;;;-3.50;52.65
31088;BME280;17745;55.914;37.554;2023-02-18T06:46:10;98611.84;;;-3.45;52.56
31088;BME280;17745;55.914;37.554;2023-02-18T06:48:38;98601.13;;;-3.41;52.41
31088;BME280;17745;55.914;37.554;2023-02-18T06:51:07;98590.66;;;-3.48;52.39
31088;BME280;17745;55.914;37.554;2023-02-18T06:53:36;98598.00;;;-3.52;52.36
31088;BME280;17745;55.914;37.554;2023-02-18T06:56:05;98584.78;;;-3.57;52.12
31088;BME280;17745;55.914;37.554;2023-02-18T06:58:33;98580.12;;;-3.62;52.27
31088;BME280;17745;55.914;37.554;2023-02-18T07:01:00;98585.56;;;-3.71;52.23
31088;BME280;17745;55.914;37.554;2023-02-18T07:03:28;98581.06;;;-3.78;52.26
31088;BME280;17745;55.914;37.554;2023-02-18T07:05:56;98567.16;;;-3.77;52.17
31088;BME280;17745;55.914;37.554;2023-02-18T07:08:39;98579.81;;;-3.82;52.08
31088;BME280;17745;55.914;37.554;2023-02-18T07:11:15;98560.72;;;-3.81;52.07
31088;BME280;17745;55.914;37.554;2023-02-18T07:13:47;98562.88;;;-3.84;51.97
31088;BME280;17745;55.914;37.554;2023-02-18T07:16:16;98560.81;;;-3.74;52.29
31088;BME280;17745;55.914;37.554;2023-02-18T07:18:44;98556.66;;;-3.60;51.96
31088;BME280;17745;55.914;37.554;2023-02-18T07:21:13;98558.56;;;-3.54;51.85
31088;BME280;17745;55.914;37.554;2023-02-18T07:23:46;98552.50;;;-3.46;51.79
31088;BME280;17745;55.914;37.554;2023-02-18T07:26:16;98543.75;;;-3.30;51.83
31088;BME280;17745;55.914;37.554;2023-02-18T07:28:44;98540.44;;;-3.24;51.58
31088;BME280;17745;55.914;37.554;2023-02-18T07:31:15;98540.44;;;-3.24;51.42
31088;BME280;17745;55.914;37.554;2023-02-18T07:33:47;98525.78;;;-3.17;51.30
31088;BME280;17745;55.914;37.554;2023-02-18T07:36:17;98528.28;;;-3.08;51.14
31088;BME280;17745;55.914;37.554;2023-02-18T07:38:48;98520.25;;;-2.98;51.06
31088;BME280;17745;55.914;37.554;2023-02-18T07:41:30;98529.44;;;-2.96;50.97
31088;BME280;17745;55.914;37.554;2023-02-18T07:44:00;98528.84;;;-2.76;51.32
31088;BME280;17745;55.914;37.554;2023-02-18T07:46:33;98522.59;;;-2.67;51.06
31088;BME280;17745;55.914;37.554;2023-02-18T07:49:06;98514.28;;;-2.77;50.43
31088;BME280;17745;55.914;37.554;2023-02-18T07:51:55;98513.69;;;-2.79;50.64
31088;BME280;17745;55.914;37.554;2023-02-18T07:55:01;98509.31;;;-2.79;50.33
31088;BME280;17745;55.914;37.554;2023-02-18T07:57:35;98492.09;;;-2.87;50.37
31088;BME280;17745;55.914;37.554;2023-02-18T08:00:23;98499.03;;;-2.87;50.22
31088;BME280;17745;55.914;37.554;2023-02-18T08:02:51;98493.31;;;-2.82;50.31
31088;BME280;17745;55.914;37.554;2023-02-18T08:05:20;98484.25;;;-2.71;50.29
31088;BME280;17745;55.914;37.554;2023-02-18T08:07:50;98480.16;;;-2.66;50.09
31088;BME280;17745;55.914;37.554;2023-02-18T08:10:21;98479.97;;;-2.64;50.06
31088;BME280;17745;55.914;37.554;2023-02-18T08:12:50;98470.59;;;-2.65;50.08
31088;BME280;17745;55.914;37.554;2023-02-18T08:15:19;98459.97;;;-2.70;49.90
31088;BME280;17745;55.914;37.554;2023-02-18T08:17:49;98480.22;;;-2.59;50.15
31088;BME280;17745;55.914;37.554;2023-02-18T08:20:18;98467.19;;;-2.44;49.86
31088;BME280;17745;55.914;37.554;2023-02-18T08:22:55;98446.94;;;-2.34;49.67
31088;BME280;17745;55.914;37.554;2023-02-18T08:25:28;98449.88;;;-2.37;49.55
31088;BME280;17745;55.914;37.554;2023-02-18T08:28:00;98445.87;;;-2.18;49.69
31088;BME280;17745;55.914;37.554;2023-02-18T08:30:29;98442.00;;;-2.00;49.27
31088;BME280;17745;55.914;37.554;2023-02-18T08:32:57;98448.50;;;-1.82;49.25
31088;BME280;17745;55.914;37.554;2023-02-18T08:35:25;98437.16;;;-1.75;49.03
31088;BME280;17745;55.914;37.554;2023-02-18T08:38:11;98444.59;;;-1.65;48.99
31088;BME280;17745;55.914;37.554;2023-02-18T08:40:42;98432.25;;;-1.63;48.90
31088;BME280;17745;55.914;37.554;2023-02-18T08:43:20;98410.84;;;-1.65;48.93
31088;BME280;17745;55.914;37.554;2023-02-18T08:45:51;98424.03;;;-1.66;49.06
31088;BME280;17745;55.914;37.554;2023-02-18T08:48:21;98419.88;;;-1.54;48.98
31088;BME280;17745;55.914;37.554;2023-02-18T08:53:41;98413.81;;;-1.26;48.55
31088;BME280;17745;55.914;37.554;2023-02-18T08:56:16;98413.66;;;-1.11;48.51
31088;BME280;17745;55.914;37.554;2023-02-18T08:58:46;98401.31;;;-0.82;48.21
31088;BME280;17745;55.914;37.554;2023-02-18T09:01:15;98399.75;;;-0.63;48.07
31088;BME280;17745;55.914;37.554;2023-02-18T09:03:45;98397.97;;;-0.35;48.00
31088;BME280;17745;55.914;37.554;2023-02-18T09:06:24;98388.69;;;0.03;48.05
31088;BME280;17745;55.914;37.554;2023-02-18T09:08:52;98382.88;;;0.21;47.90
31088;BME280;17745;55.914;37.554;2023-02-18T09:11:21;98377.25;;;0.24;47.78
31088;BME280;17745;55.914;37.554;2023-02-18T09:13:50;98371.81;;;0.25;48.02
31088;BME280;17745;55.914;37.554;2023-02-18T09:16:22;98373.00;;;0.30;47.71
31088;BME280;17745;55.914;37.554;2023-02-18T09:18:56;98374.38;;;0.39;47.46
31088;BME280;17745;55.914;37.554;2023-02-18T09:21:28;98361.56;;;0.37;46.99
31088;BME280;17745;55.914;37.554;2023-02-18T09:23:57;98346.63;;;0.19;46.82
31088;BME280;17745;55.914;37.554;2023-02-18T09:26:30;98350.25;;;0.11;46.82
31088;BME280;17745;55.914;37.554;2023-02-18T09:29:01;98349.84;;;0.08;47.05
31088;BME280;17745;55.914;37.554;2023-02-18T09:31:29;98343.09;;;0.00;46.96
31088;BME280;17745;55.914;37.554;2023-02-18T09:33:58;98335.47;;;-0.08;46.93
31088;BME280;17745;55.914;37.554;2023-02-18T09:36:27;98334.72;;;-0.16;46.90
31088;BME280;17745;55.914;37.554;2023-02-18T09:38:56;98330.06;;;0.00;47.06
31088;BME280;17745;55.914;37.554;2023-02-18T09:41:33;98329.25;;;0.06;47.23
31088;BME280;17745;55.914;37.554;2023-02-18T09:44:06;98315.06;;;-0.05;46.92
31088;BME280;17745;55.914;37.554;2023-02-18T09:46:47;98311.63;;;0.02;46.89
31088;BME280;17745;55.914;37.554;2023-02-18T09:49:19;98310.47;;;-0.09;46.80
31088;BME280;17745;55.914;37.554;2023-02-18T09:51:47;98302.91;;;-0.18;46.92
31088;BME280;17745;55.914;37.554;2023-02-18T09:54:17;98290.50;;;-0.29;46.94
31088;BME280;17745;55.914;37.554;2023-02-18T09:56:48;98294.28;;;-0.25;46.88
31088;BME280;17745;55.914;37.554;2023-02-18T09:59:25;98295.94;;;-0.31;46.87
31088;BME280;17745;55.914;37.554;2023-02-18T10:01:57;98281.13;;;-0.37;46.77
31088;BME280;17745;55.914;37.554;2023-02-18T10:04:33;98273.38;;;-0.57;47.10
31088;BME280;17745;55.914;37.554;2023-02-18T10:07:07;98270.34;;;-0.47;47.20
31088;BME280;17745;55.914;37.554;2023-02-18T10:09:45;98260.94;;;-0.48;47.09
31088;BME280;17745;55.914;37.554;2023-02-18T10:12:19;98261.56;;;-0.60;47.11
31088;BME280;17745;55.914;37.554;2023-02-18T10:14:54;98255.16;;;-0.64;47.25
31088;BME280;17745;55.914;37.554;2023-02-18T10:17:24;98252.75;;;-0.59;47.41
31088;BME280;17745;55.914;37.554;2023-02-18T10:19:55;98250.94;;;-0.51;47.41
31088;BME280;17745;55.914;37.554;2023-02-18T10:22:24;98248.53;;;-0.46;47.38
31088;BME280;17745;55.914;37.554;2023-02-18T10:24:57;98237.31;;;-0.47;47.30
31088;BME280;17745;55.914;37.554;2023-02-18T10:27:30;98229.34;;;-0.45;47.23
31088;BME280;17745;55.914;37.554;2023-02-18T10:30:02;98236.91;;;-0.44;47.24
31088;BME280;17745;55.914;37.554;2023-02-18T10:32:36;98213.12;;;-0.47;47.43
31088;BME280;17745;55.914;37.554;2023-02-18T10:35:13;98220.50;;;-0.37;47.20
31088;BME280;17745;55.914;37.554;2023-02-18T10:37:55;98222.03;;;-0.23;47.35
31088;BME280;17745;55.914;37.554;2023-02-18T10:40:29;98227.59;;;-0.06;46.86
31088;BME280;17745;55.914;37.554;2023-02-18T10:43:09;98218.97;;;-0.06;46.76
31088;BME280;17745;55.914;37.554;2023-02-18T10:45:47;98225.25;;;0.25;46.70
31088;BME280;17745;55.914;37.554;2023-02-18T10:48:25;98209.56;;;0.64;46.47
31088;BME280;17745;55.914;37.554;2023-02-18T10:50:58;98188.28;;;0.67;46.03
31088;BME280;17745;55.914;37.554;2023-02-18T10:53:32;98198.12;;;0.65;45.72
31088;BME280;17745;55.914;37.554;2023-02-18T10:56:01;98195.22;;;0.54;45.57
31088;BME280;17745;55.914;37.554;2023-02-18T10:58:36;98201.25;;;0.48;45.50
31088;BME280;17745;55.914;37.554;2023-02-18T11:01:13;98192.88;;;0.39;45.50
31088;BME280;17745;55.914;37.554;2023-02-18T11:03:43;98185.88;;;0.08;45.82
31088;BME280;17745;55.914;37.554;2023-02-18T11:06:19;98191.38;;;-0.14;46.23
31088;BME280;17745;55.914;37.554;2023-02-18T11:08:52;98171.09;;;-0.37;46.28
31088;BME280;17745;55.914;37.554;2023-02-18T11:11:23;98185.16;;;-0.59;46.67
31088;BME280;17745;55.914;37.554;2023-02-18T11:13:54;98174.19;;;-0.74;46.94
31088;BME280;17745;55.914;37.554;2023-02-18T11:16:36;98172.66;;;-0.89;47.09
31088;BME280;17745;55.914;37.554;2023-02-18T11:19:04;98173.44;;;-0.88;47.08
31088;BME280;17745;55.914;37.554;2023-02-18T11:21:35;98164.22;;;-0.84;47.03
31088;BME280;17745;55.914;37.554;2023-02-18T11:24:08;98164.78;;;-0.68;46.97
31088;BME280;17745;55.914;37.554;2023-02-18T11:26:38;98144.56;;;-0.60;46.85
31088;BME280;17745;55.914;37.554;2023-02-18T11:29:15;98158.44;;;-0.27;46.47
31088;BME280;17745;55.914;37.554;2023-02-18T11:31:48;98157.63;;;0.11;46.18
31088;BME280;17745;55.914;37.554;2023-02-18T11:34:20;98149.37;;;0.47;45.65
31088;BME280;17745;55.914;37.554;2023-02-18T11:36:49;98154.75;;;0.77;45.38
31088;BME280;17745;55.914;37.554;2023-02-18T11:39:22;98126.31;;;0.94;44.97
31088;BME280;17745;55.914;37.554;2023-02-18T11:41:57;98135.88;;;1.00;44.99
31088;BME280;17745;55.914;37.554;2023-02-18T11:44:29;98131.03;;;1.04;44.86
31088;BME280;17745;55.914;37.554;2023-02-18T11:47:04;98139.59;;;0.93;44.65
31088;BME280;17745;55.914;37.554;2023-02-18T11:49:34;98135.44;;;1.22;44.43
31088;BME280;17745;55.914;37.554;2023-02-18T11:52:16;98108.75;;;1.88;43.50
31088;BME280;17745;55.914;37.554;2023-02-18T11:54:58;98117.41;;;2.55;42.09
31088;BME280;17745;55.914;37.554;2023-02-18T11:57:30;98124.66;;;3.00;41.75
31088;BME280;17745;55.914;37.554;2023-02-18T12:00:16;98112.03;;;3.09;41.83
31088;BME280;17745;55.914;37.554;2023-02-18T12:02:46;98107.06;;;3.37;41.56
31088;BME280;17745;55.914;37.554;2023-02-18T12:05:19;98103.25;;;3.56;40.81
31088;BME280;17745;55.914;37.554;2023-02-18T12:08:10;98095.34;;;2.86;41.44
31088;BME280;17745;55.914;37.554;2023-02-18T12:10:46;98092.53;;;2.76;41.79
31088;BME280;17745;55.914;37.554;2023-02-18T12:13:24;98086.03;;;2.31;42.37
31088;BME280;17745;55.914;37.554;2023-02-18T12:16:12;98079.13;;;2.37;42.43
31088;BME280;17745;55.914;37.554;2023-02-18T12:18:58;98077.38;;;2.31;42.26
31088;BME280;17745;55.914;37.554;2023-02-18T12:21:44;98060.59;;;2.62;41.64
31088;BME280;17745;55.914;37.554;2023-02-18T12:27:21;98067.66;;;3.14;40.24
31088;BME280;17745;55.914;37.554;2023-02-18T12:32:51;98057.19;;;3.14;39.85
31088;BME280;17745;55.914;37.554;2023-02-18T12:35:45;98061.12;;;3.00;40.17
31088;BME280;17745;55.914;37.554;2023-02-18T12:44:56;98057.78;;;3.05;40.23
31088;BME280;17745;55.914;37.554;2023-02-18T12:47:56;98054.12;;;2.53;40.91
31088;BME280;17745;55.914;37.554;2023-02-18T12:57:04;98031.31;;;1.58;42.55
31088;BME280;17745;55.914;37.554;2023-02-18T12:59:57;98035.13;;;1.25;42.87
31088;BME280;17745;55.914;37.554;2023-02-18T13:06:02;98032.50;;;0.76;43.38
31088;BME280;17745;55.914;37.554;2023-02-18T13:08:45;98033.00;;;0.66;43.52
31088;BME280;17745;55.914;37.554;2023-02-18T13:11:24;98032.47;;;0.57;43.61
31088;BME280;17745;55.914;37.554;2023-02-18T13:14:08;98024.75;;;0.32;44.05
31088;BME280;17745;55.914;37.554;2023-02-18T13:17:00;98012.09;;;0.10;44.29
31088;BME280;17745;55.914;37.554;2023-02-18T13:19:32;98034.50;;;-0.15;44.55
31088;BME280;17745;55.914;37.554;2023-02-18T13:22:06;98026.59;;;-0.26;44.79
31088;BME280;17745;55.914;37.554;2023-02-18T13:24:46;98009.84;;;-0.37;44.98
31088;BME280;17745;55.914;37.554;2023-02-18T13:27:37;98019.34;;;-0.56;45.26
31088;BME280;17745;55.914;37.554;2023-02-18T13:30:24;98011.44;;;-0.68;45.47
31088;BME280;17745;55.914;37.554;2023-02-18T13:33:25;98013.09;;;-0.81;45.75
31088;BME280;17745;55.914;37.554;2023-02-18T13:36:16;98017.53;;;-0.88;45.78
31088;BME280;17745;55.914;37.554;2023-02-18T13:39:02;98016.16;;;-0.97;45.88
31088;BME280;17745;55.914;37.554;2023-02-18T13:41:38;98016.59;;;-1.01;46.00
31088;BME280;17745;55.914;37.554;2023-02-18T13:47:36;97993.81;;;-1.05;46.36
31088;BME280;17745;55.914;37.554;2023-02-18T13:50:25;98003.25;;;-1.18;46.49
31088;BME280;17745;55.914;37.554;2023-02-18T13:53:12;98004.84;;;-1.23;46.57
31088;BME280;17745;55.914;37.554;2023-02-18T13:55:51;98003.69;;;-1.27;46.74
31088;BME280;17745;55.914;37.554;2023-02-18T13:58:28;97994.72;;;-1.32;46.79
31088;BME280;17745;55.914;37.554;2023-02-18T14:01:00;97987.16;;;-1.40;47.03
31088;BME280;17745;55.914;37.554;2023-02-18T14:03:52;97983.97;;;-1.42;47.04
31088;BME280;17745;55.914;37.554;2023-02-18T14:06:22;97993.38;;;-1.48;47.05